Data for 03/19/2008

Time Sea-Level Adjusted Pressure Absolute Pressure Temperature Relative Humidity Dew Point   
(mb) (inHg) (mb) (inHg) (C) (F) (%) (C) (F)
00:05 1014 29.94 843 24.89 1.3 34.4 164 8.4 47
00:10 1014 29.94 843 24.89 1.3 34.4 164 8.4 47.1
00:15 1014 29.94 843 24.89 1.3 34.4 164 8.4 47.1
00:20 1014 29.94 843 24.89 1.4 34.5 164 8.4 47.2
00:25 1014 29.94 843 24.89 1.4 34.5 164 8.4 47.2
00:30 1014 29.94 843 24.89 1.4 34.6 164 8.5 47.3
00:35 1014 29.94 843 24.89 1.5 34.7 164 8.5 47.4
00:40 1014 29.94 843 24.89 1.6 34.8 164 8.6 47.5
00:45 1014 29.94 843 24.89 1.6 34.8 164 8.6 47.5
00:50 1014 29.94 844 24.92 1.6 34.8 164 8.6 47.6
00:55 1014 29.94 844 24.92 1.6 34.8 164 8.6 47.6
01:00 1014 29.94 844 24.92 1.6 34.9 164 8.7 47.6
01:05 1014 29.94 844 24.92 1.6 34.9 164 8.7 47.7
01:10 1015 29.97 844 24.92 1.6 34.9 164 8.7 47.6
01:15 1015 29.97 844 24.92 1.6 34.8 164 8.7 47.6
01:20 1015 29.97 844 24.92 1.6 34.9 164 8.7 47.7
01:25 1015 29.97 844 24.92 1.6 34.9 164 8.7 47.6
01:30 1015 29.97 844 24.92 1.6 34.8 164 8.6 47.6
01:35 1015 29.97 844 24.92 1.5 34.6 164 8.5 47.3
01:40 1015 29.97 844 24.92 1.3 34.4 164 8.4 47.1
01:45 1015 29.97 845 24.95 0.6 33.1 164 7.7 45.8
01:50 1016 30 845 24.95 0 32.1 164 7 44.7
01:55 1016 30 845 24.95 -0.2 31.7 164 6.8 44.3
02:00 1016 30 845 24.95 -0 31.9 164 7 44.5
02:05 1016 30 845 24.95 0.1 32.2 164 7.1 44.8
02:10 1016 30 845 24.95 0.3 32.6 164 7.3 45.2
02:15 1016 30 845 24.95 0.4 32.8 164 7.5 45.4
02:20 1016 30 845 24.95 0.4 32.8 164 7.5 45.4
02:25 1016 30 846 24.98 0.5 32.8 125 3.5 38.3
02:30 1016 30 846 24.98 0.4 32.7 99 0.3 32.5
02:35 1016 30 846 24.98 0.2 32.4 92 -0.9 30.4
02:40 1017 30.03 846 24.98 0.2 32.3 90 -1.3 29.7
02:45 1017 30.03 846 24.98 0.2 32.4 90 -1.2 29.8
02:50 1017 30.03 846 24.98 0.2 32.4 90 -1.3 29.7
02:55 1017 30.03 846 24.98 0.2 32.3 89 -1.3 29.6
03:00 1017 30.03 846 24.98 -0 32 90 -1.4 29.4
03:05 1017 30.03 846 24.98 -0.3 31.5 90 -1.7 29
03:10 1017 30.03 846 24.98 -0.4 31.2 90 -1.9 28.6
03:15 1017 30.03 846 24.98 -0.5 31.1 90 -2 28.5
03:20 1017 30.03 846 24.98 -0.6 31 90 -2.1 28.3
03:25 1017 30.03 846 24.98 -0.7 30.7 89 -2.2 28
03:30 1017 30.03 846 24.98 -0.8 30.6 90 -2.2 28
03:35 1017 30.03 846 24.98 -0.5 31.2 89 -2.1 28.2
03:40 1017 30.03 846 24.98 -0.2 31.6 88 -2 28.5
03:45 1017 30.03 846 24.98 -0.1 31.8 88 -1.9 28.6
03:50 1017 30.03 846 24.98 -0.2 31.7 88 -1.9 28.5
03:55 1017 30.03 846 24.98 -0.2 31.7 88 -2 28.4
04:00 1017 30.03 846 24.98 -0 31.9 85 -2.2 28
04:05 1017 30.03 846 24.98 0.1 32.2 82 -2.6 27.4
04:10 1017 30.03 846 24.98 0.2 32.4 81 -2.6 27.3
04:15 1017 30.03 846 24.98 0.4 32.7 78 -3.1 26.5
04:20 1017 30.03 846 24.98 0.4 32.8 75 -3.5 25.8
04:25 1017 30.03 846 24.98 0.5 33 73 -3.8 25.2
04:30 1017 30.03 846 24.98 0.5 33 72 -3.9 24.9
04:35 1017 30.03 846 24.98 0.4 32.7 73 -4 24.9
04:40 1017 30.03 846 24.98 -0 32 75 -4 24.8
04:45 1017 30.03 846 24.98 -0.3 31.5 76 -4.1 24.7
04:50 1017 30.03 846 24.98 -0.3 31.5 76 -4.1 24.7
04:55 1017 30.03 846 24.98 -0.3 31.5 76 -4 24.8
05:00 1017 30.03 846 24.98 -0.4 31.2 77 -4 24.7
05:05 1017 30.03 847 25.01 -0.7 30.7 79 -4 24.8
05:10 1017 30.03 847 25.01 -0.9 30.4 79 -4 24.7
05:15 1017 30.03 847 25.01 -1.1 29.9 81 -3.9 24.9
05:20 1017 30.03 847 25.01 -1.4 29.4 83 -4 24.8
05:25 1018 30.06 847 25.01 -1.6 29.2 84 -4 24.8
05:30 1018 30.06 847 25.01 -1.9 28.5 85 -4.2 24.5
05:35 1018 30.06 847 25.01 -2.3 27.8 86 -4.4 24.1
05:40 1018 30.06 847 25.01 -2.5 27.5 85 -4.6 23.7
05:45 1018 30.06 847 25.01 -2.5 27.4 85 -4.7 23.5
05:50 1018 30.06 847 25.01 -2.5 27.6 85 -4.7 23.5
05:55 1018 30.06 847 25.01 -2.4 27.7 84 -4.7 23.5
06:00 1018 30.06 847 25.01 -2.6 27.4 83 -5 23
06:05 1018 30.06 847 25.01 -2.8 27 84 -5.2 22.7
06:10 1018 30.06 847 25.01 -2.7 27.1 82 -5.3 22.4
06:15 1018 30.06 847 25.01 -2.5 27.6 81 -5.2 22.6
06:20 1018 30.06 847 25.01 -2.5 27.5 81 -5.3 22.4
06:25 1018 30.06 847 25.01 -2.4 27.7 81 -5.3 22.5
06:30 1018 30.06 847 25.01 -2.3 27.9 81 -5.2 22.7
06:35 1018 30.06 847 25.01 -2.2 28.1 81 -5 23.1
06:40 1018 30.06 847 25.01 -2.1 28.1 82 -4.8 23.3
06:45 1018 30.06 847 25.01 -2.2 28.1 82 -4.8 23.4
06:50 1018 30.06 847 25.01 -2.1 28.2 82 -4.7 23.5
06:55 1018 30.06 847 25.01 -2.2 28 82 -4.8 23.3
07:00 1018 30.06 847 25.01 -2.7 27.2 83 -5.1 22.8
07:05 1018 30.06 847 25.01 -2.7 27.1 84 -5.1 22.8
07:10 1018 30.06 847 25.01 -2.6 27.4 83 -5 22.9
07:15 1018 30.06 847 25.01 -2.8 27 83 -5.2 22.6
07:20 1018 30.06 847 25.01 -2.9 26.8 84 -5.3 22.5
07:25 1018 30.06 847 25.01 -2.9 26.8 84 -5.3 22.5
07:30 1018 30.06 847 25.01 -2.9 26.8 84 -5.2 22.6
07:35 1018 30.06 847 25.01 -2.8 27 84 -5.1 22.7
07:40 1018 30.06 847 25.01 -2.8 27 83 -5.3 22.5
07:45 1018 30.06 847 25.01 -3.3 26.1 84 -5.5 22
07:50 1018 30.06 847 25.01 -3.5 25.7 85 -5.6 21.9
07:55 1018 30.06 848 25.04 -3.6 25.5 86 -5.6 21.8
08:00 1018 30.06 848 25.04 -3.7 25.4 86 -5.7 21.7
08:05 1018 30.06 848 25.04 -3.6 25.5 85 -5.7 21.7
08:10 1018 30.06 848 25.04 -3.7 25.4 86 -5.7 21.7
08:15 1018 30.06 848 25.04 -3.7 25.4 86 -5.7 21.7
08:20 1018 30.06 848 25.04 -3.7 25.4 86 -5.7 21.7
08:25 1018 30.06 848 25.04 -3.7 25.4 86 -5.7 21.8
08:30 1018 30.06 848 25.04 -3.7 25.4 86 -5.7 21.8
08:35 1018 30.06 848 25.04 -3.4 25.8 86 -5.5 22.1
08:40 1018 30.06 848 25.04 -3.2 26.2 85 -5.4 22.3
08:45 1018 30.06 848 25.04 -2.9 26.8 83 -5.4 22.2
08:50 1018 30.06 848 25.04 -2.7 27.1 82 -5.5 22.1
08:55 1018 30.06 848 25.04 -2.4 27.6 80 -5.4 22.4
09:00 1018 30.06 848 25.04 -2.1 28.3 79 -5.2 22.6
09:05 1018 30.06 848 25.04 -1.7 28.9 77 -5.2 22.7
09:10 1018 30.06 848 25.04 -1.5 29.3 76 -5.2 22.6
09:15 1019 30.09 848 25.04 -1.4 29.5 76 -5.1 22.7
09:20 1018 30.06 848 25.04 -0.9 30.3 75 -4.9 23.2
09:25 1018 30.06 848 25.04 -0.4 31.2 72 -4.9 23.2
09:30 1018 30.06 848 25.04 -0.6 31 73 -4.9 23.2
09:35 1019 30.09 848 25.04 -0.5 31 72 -5 23
09:40 1019 30.09 848 25.04 -0 32 72 -4.6 23.8
09:45 1019 30.09 848 25.04 0.6 33.1 68 -4.6 23.8
09:50 1019 30.09 848 25.04 0.5 33 68 -4.6 23.7
09:55 1019 30.09 848 25.04 0.5 32.8 68 -4.7 23.6
10:00 1019 30.09 848 25.04 0.7 33.3 69 -4.3 24.3
10:05 1018 30.06 848 25.04 1.3 34.3 66 -4.4 24.1
10:10 1018 30.06 847 25.01 1.7 35 67 -3.9 25
10:15 1018 30.06 847 25.01 2.1 35.8 64 -3.9 25
10:20 1018 30.06 847 25.01 2.4 36.3 63 -4 24.9
10:25 1018 30.06 847 25.01 2.6 36.8 60 -4.3 24.3
10:30 1018 30.06 847 25.01 2.9 37.1 58 -4.7 23.5
10:35 1018 30.06 847 25.01 3.1 37.6 55 -5.1 22.8
10:40 1018 30.06 848 25.04 3.1 37.6 52 -5.8 21.6
10:45 1018 30.06 848 25.04 3.4 38.1 51 -5.8 21.6
10:50 1018 30.06 848 25.04 2.9 37.3 50 -6.6 20.2
10:55 1018 30.06 847 25.01 2.5 36.4 53 -6.3 20.7
11:00 1018 30.06 847 25.01 3.1 37.5 52 -5.9 21.4
11:05 1018 30.06 847 25.01 3.1 37.6 50 -6.3 20.7
11:10 1018 30.06 847 25.01 2.8 37.1 49 -6.8 19.7
11:15 1018 30.06 847 25.01 3.2 37.8 50 -6.1 21
11:20 1018 30.06 847 25.01 3.6 38.4 49 -6.3 20.7
11:25 1018 30.06 847 25.01 3.9 39 47 -6.5 20.4
11:30 1018 30.06 847 25.01 4.4 40 45 -6.4 20.5
11:35 1018 30.06 847 25.01 4.5 40.1 45 -6.4 20.4
11:40 1018 30.06 847 25.01 3.8 38.9 46 -6.8 19.8
11:45 1018 30.06 847 25.01 3.3 37.9 46 -7.2 19.1
11:50 1018 30.06 847 25.01 3.4 38.1 47 -6.9 19.6
11:55 1018 30.06 847 25.01 3.8 38.9 44 -7.4 18.8
12:00 1018 30.06 847 25.01 4 39.2 44 -7.1 19.2
12:05 1017 30.03 847 25.01 4.5 40.1 43 -7 19.3
12:10 1017 30.03 847 25.01 5.5 41.9 39 -7.4 18.8
12:15 1017 30.03 847 25.01 4.9 40.9 40 -7.5 18.6
12:20 1017 30.03 846 24.98 5.2 41.3 40 -7.4 18.7
12:25 1017 30.03 846 24.98 5.1 41.2 39 -7.7 18.2
12:30 1017 30.03 846 24.98 5.3 41.5 40 -7.2 19.1
12:35 1017 30.03 846 24.98 6.1 43 39 -6.9 19.5
12:40 1017 30.03 846 24.98 6.4 43.4 37 -7.4 18.7
12:45 1017 30.03 846 24.98 6.2 43.1 40 -6.6 20.1
12:50 1017 30.03 846 24.98 6.4 43.5 38 -6.8 19.7
12:55 1017 30.03 846 24.98 6.6 43.9 37 -7.2 19
13:00 1017 30.03 846 24.98 6.1 42.9 36 -7.7 18.1
13:05 1017 30.03 846 24.98 5.6 42.1 40 -7.1 19.2
13:10 1017 30.03 846 24.98 6.7 44.1 38 -6.5 20.3
13:15 1017 30.03 846 24.98 7.7 45.9 34 -7.3 18.9
13:20 1017 30.03 846 24.98 7.3 45.1 35 -7.2 19.1
13:25 1016 30 846 24.98 6.6 43.9 37 -7.2 19.1
13:30 1016 30 846 24.98 6.5 43.7 37 -7.1 19.2
13:35 1016 30 845 24.95 6.6 43.8 35 -7.7 18.2
13:40 1016 30 845 24.95 6.8 44.2 35 -7.7 18.2
13:45 1016 30 845 24.95 7.7 45.8 34 -7.2 19
13:50 1016 30 845 24.95 7.7 45.9 34 -7.3 18.9
13:55 1016 30 845 24.95 7.4 45.3 34 -7.6 18.2
14:00 1016 30 845 24.95 7.4 45.3 34 -7.5 18.4
14:05 1016 30 845 24.95 7.9 46.3 33 -7.3 18.8
14:10 1016 30 845 24.95 7.3 45.1 35 -7.1 19.2
14:15 1016 30 845 24.95 7 44.7 35 -7.5 18.6
14:20 1015 29.97 845 24.95 6.9 44.3 34 -7.8 18
14:25 1015 29.97 845 24.95 5.9 42.7 35 -8.5 16.6
14:30 1015 29.97 845 24.95 5.6 42.1 35 -8.6 16.6
14:35 1015 29.97 844 24.92 5.3 41.6 35 -8.8 16.2
14:40 1015 29.97 844 24.92 5.2 41.4 36 -8.7 16.3
14:45 1015 29.97 844 24.92 5.6 42.1 34 -8.9 16
14:50 1015 29.97 844 24.92 5.2 41.4 35 -8.9 15.9
14:55 1015 29.97 844 24.92 5.1 41.2 36 -8.6 16.5
15:00 1015 29.97 844 24.92 5.4 41.8 37 -8.3 17.1
15:05 1015 29.97 844 24.92 5.7 42.3 36 -8.3 17.1
15:10 1015 29.97 844 24.92 6.3 43.4 35 -8.2 17.3
15:15 1015 29.97 844 24.92 7.2 44.9 32 -8.3 17.1
15:20 1015 29.97 844 24.92 6.7 44.1 33 -8.5 16.6
15:25 1015 29.97 844 24.92 5.9 42.6 34 -8.6 16.5
15:30 1015 29.97 844 24.92 5.8 42.4 34 -8.9 15.9
15:35 1015 29.97 844 24.92 5.9 42.5 33 -9.1 15.6
15:40 1015 29.97 844 24.92 6 42.8 33 -9 15.8
15:45 1014 29.94 844 24.92 6.2 43.1 33 -9 15.7
15:50 1014 29.94 844 24.92 6.2 43.2 34 -8.6 16.6
15:55 1014 29.94 843 24.89 7.2 44.9 33 -7.9 17.8
16:00 1014 29.94 843 24.89 7.7 45.8 31 -8.5 16.6
16:05 1014 29.94 843 24.89 7.4 45.2 31 -8.6 16.5
16:10 1014 29.94 843 24.89 7.3 45.1 33 -7.7 18.1
16:15 1014 29.94 843 24.89 7.6 45.6 34 -7.4 18.6
16:20 1014 29.94 843 24.89 7.5 45.5 33 -7.7 18.1
16:25 1014 29.94 843 24.89 7.6 45.6 32 -7.9 17.8
16:30 1014 29.94 843 24.89 7.5 45.6 32 -7.9 17.7
16:35 1014 29.94 843 24.89 7.2 44.9 34 -7.7 18.2
16:40 1014 29.94 843 24.89 6.9 44.4 34 -7.9 17.8
16:45 1013 29.91 843 24.89 6.7 44.1 35 -7.8 18
16:50 1013 29.91 843 24.89 6.6 43.9 36 -7.5 18.6
16:55 1013 29.91 842 24.86 7 44.6 34 -8 17.6
17:00 1013 29.91 842 24.86 6.7 44.1 34 -8 17.6
17:05 1013 29.91 842 24.86 6.7 44 34 -8 17.6
17:10 1013 29.91 842 24.86 6.7 44 33 -8.6 16.6
17:15 1013 29.91 842 24.86 6.4 43.5 33 -8.7 16.4
17:20 1013 29.91 842 24.86 6.2 43.1 34 -8.7 16.3
17:25 1013 29.91 842 24.86 6.2 43.1 32 -9.1 15.5
17:30 1013 29.91 842 24.86 6.5 43.6 31 -9.4 15
17:35 1013 29.91 842 24.86 6.5 43.6 30 -10 14
17:40 1013 29.91 842 24.86 6.3 43.4 30 -9.9 14.2
17:45 1013 29.91 842 24.86 6.3 43.3 31 -9.5 14.9
17:50 1013 29.91 842 24.86 6.2 43.2 33 -9 15.8
17:55 1013 29.91 842 24.86 6.3 43.3 33 -8.7 16.4
18:00 1013 29.91 842 24.86 6.4 43.6 34 -8.3 17.1
18:05 1013 29.91 842 24.86 6.4 43.5 35 -7.8 17.9
18:10 1012 29.88 842 24.86 6.3 43.3 37 -7.2 19
18:15 1012 29.88 842 24.86 6.2 43.1 39 -6.8 19.7
18:20 1012 29.88 841 24.83 6 42.8 40 -6.7 20
18:25 1012 29.88 841 24.83 6 42.8 40 -6.6 20
18:30 1012 29.88 841 24.83 6.1 42.9 39 -6.8 19.8
18:35 1012 29.88 841 24.83 6.2 43.1 40 -6.4 20.5
18:40 1012 29.88 841 24.83 6.1 43 41 -6.2 20.9
18:45 1012 29.88 841 24.83 5.9 42.5 42 -6.1 21
18:50 1012 29.88 841 24.83 5.7 42.3 44 -5.7 21.8
18:55 1012 29.88 841 24.83 5.7 42.2 44 -5.6 22
19:00 1012 29.88 841 24.83 5.6 42.1 45 -5.4 22.3
19:05 1012 29.88 841 24.83 5.6 42.1 46 -5.2 22.6
19:10 1012 29.88 841 24.83 5.6 42.1 47 -4.8 23.4
19:15 1012 29.88 841 24.83 5.7 42.3 46 -4.9 23.2
19:20 1012 29.88 841 24.83 5.9 42.5 44 -5.4 22.2
19:25 1012 29.88 841 24.83 6 42.9 45 -5.1 22.7
19:30 1012 29.88 841 24.83 6.1 42.9 44 -5.3 22.5
19:35 1012 29.88 841 24.83 6 42.8 45 -5 23.1
19:40 1012 29.88 841 24.83 6 42.7 45 -5 22.9
19:45 1012 29.88 841 24.83 6 42.7 42 -5.9 21.5
19:50 1012 29.88 841 24.83 6.1 43 40 -6.6 20.2
19:55 1012 29.88 841 24.83 6.3 43.3 41 -6.1 21
20:00 1012 29.88 841 24.83 6 42.8 45 -5.1 22.8
20:05 1011 29.85 841 24.83 5.6 42 50 -4.1 24.7
20:10 1011 29.85 841 24.83 5.2 41.4 52 -3.8 25.2
20:15 1011 29.85 841 24.83 5 40.9 54 -3.7 25.4
20:20 1011 29.85 841 24.83 4.8 40.7 54 -3.6 25.6
20:25 1011 29.85 841 24.83 5.1 41.1 53 -3.7 25.4
20:30 1011 29.85 841 24.83 5.2 41.4 53 -3.6 25.5
20:35 1011 29.85 840 24.81 5.2 41.4 50 -4.3 24.3
20:40 1011 29.85 840 24.81 5 41 54 -3.5 25.8
20:45 1011 29.85 840 24.81 4.9 40.7 55 -3.5 25.7
20:50 1011 29.85 840 24.81 4.6 40.4 56 -3.3 26
20:55 1011 29.85 840 24.81 4.3 39.7 57 -3.4 25.8
21:00 1011 29.85 840 24.81 4.2 39.5 57 -3.5 25.7
21:05 1011 29.85 840 24.81 4.1 39.4 58 -3.5 25.6
21:10 1011 29.85 840 24.81 4.1 39.3 56 -4 24.7
21:15 1011 29.85 840 24.81 4.3 39.7 56 -3.7 25.3
21:20 1011 29.85 840 24.81 4.1 39.3 59 -3.3 26.1
21:25 1011 29.85 840 24.81 3.8 38.8 61 -3.1 26.4
21:30 1011 29.85 840 24.81 3.7 38.6 62 -2.9 26.8
21:35 1011 29.85 840 24.81 3.6 38.4 64 -2.7 27.2
21:40 1011 29.85 840 24.81 3.4 38.1 65 -2.5 27.5
21:45 1011 29.85 840 24.81 3.2 37.7 66 -2.5 27.4
21:50 1011 29.85 840 24.81 3.1 37.5 67 -2.5 27.5
21:55 1011 29.85 840 24.81 2.9 37.3 66 -2.7 27.1
22:00 1011 29.85 840 24.81 2.9 37.2 66 -2.8 27
22:05 1011 29.85 840 24.81 2.8 37.1 65 -3 26.5
22:10 1010 29.83 840 24.81 2.8 37.1 65 -3.1 26.5
22:15 1010 29.83 840 24.81 2.7 36.8 66 -3 26.6
22:20 1010 29.83 840 24.81 2.5 36.5 66 -3.2 26.2
22:25 1010 29.83 839 24.78 2.4 36.3 66 -3.4 26
22:30 1010 29.83 839 24.78 2.4 36.2 65 -3.5 25.7
22:35 1010 29.83 839 24.78 2.3 36.2 66 -3.3 26
22:40 1010 29.83 839 24.78 2.1 35.9 67 -3.4 25.9
22:45 1010 29.83 839 24.78 2.1 35.8 67 -3.3 26
22:50 1010 29.83 839 24.78 2.2 35.9 68 -3.1 26.3
22:55 1010 29.83 839 24.78 2.2 36 68 -3 26.6
23:00 1010 29.83 839 24.78 2.2 36 69 -2.9 26.7
23:05 1010 29.83 839 24.78 2.3 36.2 69 -2.7 27.1
23:10 1010 29.83 839 24.78 2.4 36.3 70 -2.6 27.3
23:15 1010 29.83 839 24.78 2.6 36.6 69 -2.5 27.4
23:20 1010 29.83 839 24.78 2.8 37 68 -2.5 27.5
23:25 1010 29.83 839 24.78 2.9 37.2 68 -2.4 27.7
23:30 1010 29.83 839 24.78 3 37.4 68 -2.3 27.8
23:35 1010 29.83 839 24.78 3 37.4 68 -2.4 27.8
23:40 1010 29.83 840 24.81 3 37.5 68 -2.4 27.7
23:45 1011 29.85 840 24.81 3.1 37.6 67 -2.4 27.8
23:50 1010 29.83 840 24.81 3.2 37.7 69 -1.9 28.5
23:55 1010 29.83 839 24.78 3.2 37.8 71 -1.6 29.2
24:00 1010 29.83 840 24.81 3.2 37.8 72 -1.4 29.4